sensor_id;sensor_type;location;lat;lon;timestamp;P1;durP1;ratioP1;P2;durP2;ratioP2
84048;SDS011;74136;51.684;7.862;2024-01-06T00:00:03;34.53;;;14.80;;
84048;SDS011;74136;51.684;7.862;2024-01-06T00:02:29;36.15;;;17.15;;
84048;SDS011;74136;51.684;7.862;2024-01-06T00:04:56;37.25;;;17.67;;
84048;SDS011;74136;51.684;7.862;2024-01-06T00:07:22;31.33;;;14.07;;
84048;SDS011;74136;51.684;7.862;2024-01-06T00:09:48;34.65;;;17.23;;
84048;SDS011;74136;51.684;7.862;2024-01-06T00:12:14;36.80;;;16.85;;
84048;SDS011;74136;51.684;7.862;2024-01-06T00:14:41;35.65;;;16.85;;
84048;SDS011;74136;51.684;7.862;2024-01-06T00:19:35;44.15;;;18.67;;
84048;SDS011;74136;51.684;7.862;2024-01-06T00:22:01;35.63;;;15.48;;
84048;SDS011;74136;51.684;7.862;2024-01-06T00:24:28;56.10;;;24.73;;
84048;SDS011;74136;51.684;7.862;2024-01-06T00:26:54;34.15;;;14.55;;
84048;SDS011;74136;51.684;7.862;2024-01-06T00:29:21;43.85;;;18.38;;
84048;SDS011;74136;51.684;7.862;2024-01-06T00:31:47;37.75;;;15.93;;
84048;SDS011;74136;51.684;7.862;2024-01-06T00:34:13;32.50;;;15.00;;
84048;SDS011;74136;51.684;7.862;2024-01-06T00:36:39;34.33;;;14.63;;
84048;SDS011;74136;51.684;7.862;2024-01-06T00:39:06;32.95;;;14.15;;
84048;SDS011;74136;51.684;7.862;2024-01-06T00:41:32;48.55;;;20.67;;
84048;SDS011;74136;51.684;7.862;2024-01-06T00:43:58;55.03;;;23.60;;
84048;SDS011;74136;51.684;7.862;2024-01-06T00:46:24;35.38;;;16.20;;
84048;SDS011;74136;51.684;7.862;2024-01-06T00:48:51;37.05;;;15.20;;
84048;SDS011;74136;51.684;7.862;2024-01-06T00:51:18;32.60;;;14.45;;
84048;SDS011;74136;51.684;7.862;2024-01-06T00:53:44;36.95;;;14.95;;
84048;SDS011;74136;51.684;7.862;2024-01-06T00:56:10;36.08;;;15.50;;
84048;SDS011;74136;51.684;7.862;2024-01-06T00:58:36;35.25;;;15.88;;
84048;SDS011;74136;51.684;7.862;2024-01-06T01:01:03;41.00;;;15.93;;
84048;SDS011;74136;51.684;7.862;2024-01-06T01:03:29;38.92;;;17.42;;
84048;SDS011;74136;51.684;7.862;2024-01-06T01:05:55;40.83;;;17.13;;
84048;SDS011;74136;51.684;7.862;2024-01-06T01:08:21;48.55;;;19.25;;
84048;SDS011;74136;51.684;7.862;2024-01-06T01:10:47;45.72;;;19.05;;
84048;SDS011;74136;51.684;7.862;2024-01-06T01:13:14;49.78;;;18.77;;
84048;SDS011;74136;51.684;7.862;2024-01-06T01:15:40;42.65;;;19.40;;
84048;SDS011;74136;51.684;7.862;2024-01-06T01:18:06;44.60;;;18.13;;
84048;SDS011;74136;51.684;7.862;2024-01-06T01:20:32;42.53;;;18.23;;
84048;SDS011;74136;51.684;7.862;2024-01-06T01:22:58;43.03;;;17.67;;
84048;SDS011;74136;51.684;7.862;2024-01-06T01:25:25;36.83;;;15.73;;
84048;SDS011;74136;51.684;7.862;2024-01-06T01:27:51;40.25;;;15.85;;
84048;SDS011;74136;51.684;7.862;2024-01-06T01:30:17;39.00;;;15.50;;
84048;SDS011;74136;51.684;7.862;2024-01-06T01:32:43;38.17;;;16.02;;
84048;SDS011;74136;51.684;7.862;2024-01-06T01:35:10;35.75;;;15.07;;
84048;SDS011;74136;51.684;7.862;2024-01-06T01:37:36;33.63;;;14.73;;
84048;SDS011;74136;51.684;7.862;2024-01-06T01:40:02;34.17;;;15.98;;
84048;SDS011;74136;51.684;7.862;2024-01-06T01:42:29;34.78;;;15.10;;
84048;SDS011;74136;51.684;7.862;2024-01-06T01:44:55;32.88;;;14.65;;
84048;SDS011;74136;51.684;7.862;2024-01-06T01:47:21;33.88;;;14.25;;
84048;SDS011;74136;51.684;7.862;2024-01-06T01:49:48;30.85;;;14.43;;
84048;SDS011;74136;51.684;7.862;2024-01-06T01:52:15;35.90;;;15.00;;
84048;SDS011;74136;51.684;7.862;2024-01-06T01:54:42;32.28;;;14.40;;
84048;SDS011;74136;51.684;7.862;2024-01-06T01:57:10;31.90;;;14.82;;
84048;SDS011;74136;51.684;7.862;2024-01-06T02:02:04;34.13;;;14.50;;
84048;SDS011;74136;51.684;7.862;2024-01-06T02:04:30;30.15;;;13.63;;
84048;SDS011;74136;51.684;7.862;2024-01-06T02:06:57;35.88;;;15.27;;
84048;SDS011;74136;51.684;7.862;2024-01-06T02:09:23;35.60;;;15.00;;
84048;SDS011;74136;51.684;7.862;2024-01-06T02:11:53;36.33;;;15.13;;
84048;SDS011;74136;51.684;7.862;2024-01-06T02:14:19;35.65;;;15.50;;
84048;SDS011;74136;51.684;7.862;2024-01-06T02:16:45;34.65;;;15.55;;
84048;SDS011;74136;51.684;7.862;2024-01-06T02:19:11;34.30;;;14.05;;
84048;SDS011;74136;51.684;7.862;2024-01-06T02:21:41;32.90;;;13.82;;
84048;SDS011;74136;51.684;7.862;2024-01-06T02:24:09;34.60;;;14.43;;
84048;SDS011;74136;51.684;7.862;2024-01-06T02:26:35;36.05;;;15.18;;
84048;SDS011;74136;51.684;7.862;2024-01-06T02:29:02;35.67;;;14.20;;
84048;SDS011;74136;51.684;7.862;2024-01-06T02:31:28;39.28;;;16.33;;
84048;SDS011;74136;51.684;7.862;2024-01-06T02:33:54;36.30;;;14.57;;
84048;SDS011;74136;51.684;7.862;2024-01-06T02:36:20;36.80;;;15.13;;
84048;SDS011;74136;51.684;7.862;2024-01-06T02:38:46;40.30;;;16.75;;
84048;SDS011;74136;51.684;7.862;2024-01-06T02:41:13;39.08;;;16.42;;
84048;SDS011;74136;51.684;7.862;2024-01-06T02:43:39;40.58;;;17.20;;
84048;SDS011;74136;51.684;7.862;2024-01-06T02:46:06;39.75;;;15.10;;
84048;SDS011;74136;51.684;7.862;2024-01-06T02:48:33;43.75;;;17.17;;
84048;SDS011;74136;51.684;7.862;2024-01-06T02:50:59;43.42;;;16.95;;
84048;SDS011;74136;51.684;7.862;2024-01-06T02:53:25;44.35;;;19.10;;
84048;SDS011;74136;51.684;7.862;2024-01-06T02:55:51;42.45;;;17.25;;
84048;SDS011;74136;51.684;7.862;2024-01-06T02:58:17;40.83;;;18.08;;
84048;SDS011;74136;51.684;7.862;2024-01-06T03:00:43;30.92;;;14.20;;
84048;SDS011;74136;51.684;7.862;2024-01-06T03:03:10;27.27;;;12.80;;
84048;SDS011;74136;51.684;7.862;2024-01-06T03:05:36;28.88;;;11.05;;
84048;SDS011;74136;51.684;7.862;2024-01-06T03:08:03;26.88;;;12.02;;
84048;SDS011;74136;51.684;7.862;2024-01-06T03:10:30;26.02;;;12.05;;
84048;SDS011;74136;51.684;7.862;2024-01-06T03:12:56;25.92;;;11.10;;
84048;SDS011;74136;51.684;7.862;2024-01-06T03:15:22;26.13;;;11.55;;
84048;SDS011;74136;51.684;7.862;2024-01-06T03:17:48;25.52;;;12.07;;
84048;SDS011;74136;51.684;7.862;2024-01-06T03:20:15;25.02;;;11.30;;
84048;SDS011;74136;51.684;7.862;2024-01-06T03:22:41;25.02;;;10.68;;
84048;SDS011;74136;51.684;7.862;2024-01-06T03:25:07;25.77;;;12.32;;
84048;SDS011;74136;51.684;7.862;2024-01-06T03:27:33;28.75;;;11.95;;
84048;SDS011;74136;51.684;7.862;2024-01-06T03:30:00;27.10;;;10.95;;
84048;SDS011;74136;51.684;7.862;2024-01-06T03:32:26;28.85;;;13.02;;
84048;SDS011;74136;51.684;7.862;2024-01-06T03:34:54;26.25;;;12.27;;
84048;SDS011;74136;51.684;7.862;2024-01-06T03:37:20;27.85;;;13.48;;
84048;SDS011;74136;51.684;7.862;2024-01-06T03:39:48;27.98;;;11.25;;
84048;SDS011;74136;51.684;7.862;2024-01-06T03:42:14;29.38;;;12.70;;
84048;SDS011;74136;51.684;7.862;2024-01-06T03:44:40;26.83;;;10.98;;
84048;SDS011;74136;51.684;7.862;2024-01-06T03:47:06;28.10;;;12.10;;
84048;SDS011;74136;51.684;7.862;2024-01-06T03:49:32;24.83;;;9.82;;
84048;SDS011;74136;51.684;7.862;2024-01-06T03:51:59;25.05;;;10.00;;
84048;SDS011;74136;51.684;7.862;2024-01-06T03:54:25;25.27;;;10.40;;
84048;SDS011;74136;51.684;7.862;2024-01-06T03:56:51;25.02;;;9.50;;
84048;SDS011;74136;51.684;7.862;2024-01-06T03:59:17;23.67;;;9.27;;
84048;SDS011;74136;51.684;7.862;2024-01-06T04:01:44;24.88;;;10.93;;
84048;SDS011;74136;51.684;7.862;2024-01-06T04:04:10;22.75;;;9.15;;
84048;SDS011;74136;51.684;7.862;2024-01-06T04:06:36;22.60;;;9.68;;
84048;SDS011;74136;51.684;7.862;2024-01-06T04:09:02;23.42;;;9.15;;
84048;SDS011;74136;51.684;7.862;2024-01-06T04:11:28;23.77;;;9.15;;
84048;SDS011;74136;51.684;7.862;2024-01-06T04:13:55;24.08;;;9.52;;
84048;SDS011;74136;51.684;7.862;2024-01-06T04:16:21;25.02;;;9.90;;
84048;SDS011;74136;51.684;7.862;2024-01-06T04:18:47;24.17;;;10.18;;
84048;SDS011;74136;51.684;7.862;2024-01-06T04:21:13;22.48;;;8.95;;
84048;SDS011;74136;51.684;7.862;2024-01-06T04:23:40;23.55;;;9.05;;
84048;SDS011;74136;51.684;7.862;2024-01-06T04:26:06;22.45;;;8.18;;
84048;SDS011;74136;51.684;7.862;2024-01-06T04:28:32;24.75;;;8.85;;
84048;SDS011;74136;51.684;7.862;2024-01-06T04:30:59;26.15;;;10.45;;
84048;SDS011;74136;51.684;7.862;2024-01-06T04:33:25;25.20;;;8.02;;
84048;SDS011;74136;51.684;7.862;2024-01-06T04:35:51;24.15;;;8.73;;
84048;SDS011;74136;51.684;7.862;2024-01-06T04:38:17;23.85;;;9.38;;
84048;SDS011;74136;51.684;7.862;2024-01-06T04:40:43;28.00;;;10.57;;
84048;SDS011;74136;51.684;7.862;2024-01-06T04:43:10;25.60;;;8.75;;
84048;SDS011;74136;51.684;7.862;2024-01-06T04:45:36;27.48;;;9.60;;
84048;SDS011;74136;51.684;7.862;2024-01-06T04:48:03;28.40;;;9.73;;
84048;SDS011;74136;51.684;7.862;2024-01-06T04:50:30;32.25;;;12.07;;
84048;SDS011;74136;51.684;7.862;2024-01-06T04:52:57;25.80;;;9.13;;
84048;SDS011;74136;51.684;7.862;2024-01-06T04:55:23;30.67;;;10.30;;
84048;SDS011;74136;51.684;7.862;2024-01-06T04:57:49;34.40;;;13.05;;
84048;SDS011;74136;51.684;7.862;2024-01-06T05:02:41;34.15;;;11.38;;
84048;SDS011;74136;51.684;7.862;2024-01-06T05:05:07;33.60;;;11.57;;
84048;SDS011;74136;51.684;7.862;2024-01-06T05:07:33;31.95;;;11.93;;
84048;SDS011;74136;51.684;7.862;2024-01-06T05:10:00;30.40;;;11.65;;
84048;SDS011;74136;51.684;7.862;2024-01-06T05:12:26;33.83;;;10.73;;
84048;SDS011;74136;51.684;7.862;2024-01-06T05:14:52;35.42;;;12.48;;
84048;SDS011;74136;51.684;7.862;2024-01-06T05:17:18;39.25;;;14.25;;
84048;SDS011;74136;51.684;7.862;2024-01-06T05:19:44;35.88;;;10.57;;
84048;SDS011;74136;51.684;7.862;2024-01-06T05:22:11;34.92;;;14.10;;
84048;SDS011;74136;51.684;7.862;2024-01-06T05:24:37;34.97;;;14.80;;
84048;SDS011;74136;51.684;7.862;2024-01-06T05:27:03;30.58;;;10.30;;
84048;SDS011;74136;51.684;7.862;2024-01-06T05:29:30;35.05;;;12.48;;
84048;SDS011;74136;51.684;7.862;2024-01-06T05:31:56;28.30;;;11.05;;
84048;SDS011;74136;51.684;7.862;2024-01-06T05:34:22;30.15;;;10.35;;
84048;SDS011;74136;51.684;7.862;2024-01-06T05:36:49;27.25;;;9.65;;
84048;SDS011;74136;51.684;7.862;2024-01-06T05:39:15;28.83;;;9.60;;
84048;SDS011;74136;51.684;7.862;2024-01-06T05:41:41;25.13;;;9.00;;
84048;SDS011;74136;51.684;7.862;2024-01-06T05:44:07;29.52;;;9.93;;
84048;SDS011;74136;51.684;7.862;2024-01-06T05:46:34;26.13;;;10.45;;
84048;SDS011;74136;51.684;7.862;2024-01-06T05:49:00;26.25;;;9.00;;
84048;SDS011;74136;51.684;7.862;2024-01-06T05:51:27;23.67;;;8.55;;
84048;SDS011;74136;51.684;7.862;2024-01-06T05:53:53;24.02;;;8.68;;
84048;SDS011;74136;51.684;7.862;2024-01-06T05:56:24;23.50;;;8.82;;
84048;SDS011;74136;51.684;7.862;2024-01-06T05:58:51;23.27;;;8.80;;
84048;SDS011;74136;51.684;7.862;2024-01-06T06:01:19;19.98;;;7.15;;
84048;SDS011;74136;51.684;7.862;2024-01-06T06:03:46;24.50;;;8.00;;
84048;SDS011;74136;51.684;7.862;2024-01-06T06:06:13;23.02;;;8.63;;
84048;SDS011;74136;51.684;7.862;2024-01-06T06:08:43;23.63;;;8.25;;
84048;SDS011;74136;51.684;7.862;2024-01-06T06:11:09;27.10;;;9.95;;
84048;SDS011;74136;51.684;7.862;2024-01-06T06:13:39;24.55;;;8.52;;
84048;SDS011;74136;51.684;7.862;2024-01-06T06:16:07;23.70;;;8.07;;
84048;SDS011;74136;51.684;7.862;2024-01-06T06:18:35;26.75;;;10.05;;
84048;SDS011;74136;51.684;7.862;2024-01-06T06:21:01;24.73;;;8.43;;
84048;SDS011;74136;51.684;7.862;2024-01-06T06:23:33;23.63;;;8.30;;
84048;SDS011;74136;51.684;7.862;2024-01-06T06:26:03;25.13;;;8.55;;
84048;SDS011;74136;51.684;7.862;2024-01-06T06:28:30;26.58;;;8.68;;
84048;SDS011;74136;51.684;7.862;2024-01-06T06:30:56;24.60;;;8.00;;
84048;SDS011;74136;51.684;7.862;2024-01-06T06:33:23;24.33;;;9.13;;
84048;SDS011;74136;51.684;7.862;2024-01-06T06:35:49;25.58;;;8.35;;
84048;SDS011;74136;51.684;7.862;2024-01-06T06:38:15;23.33;;;9.15;;
84048;SDS011;74136;51.684;7.862;2024-01-06T06:40:41;25.00;;;8.30;;
84048;SDS011;74136;51.684;7.862;2024-01-06T06:43:07;24.50;;;9.65;;
84048;SDS011;74136;51.684;7.862;2024-01-06T06:45:34;24.50;;;7.90;;
84048;SDS011;74136;51.684;7.862;2024-01-06T06:48:01;29.38;;;9.13;;
84048;SDS011;74136;51.684;7.862;2024-01-06T06:50:27;28.90;;;9.20;;
84048;SDS011;74136;51.684;7.862;2024-01-06T06:52:53;25.05;;;9.02;;
84048;SDS011;74136;51.684;7.862;2024-01-06T06:55:19;26.40;;;8.93;;
84048;SDS011;74136;51.684;7.862;2024-01-06T06:57:45;28.33;;;8.18;;
84048;SDS011;74136;51.684;7.862;2024-01-06T07:00:12;27.20;;;8.07;;
84048;SDS011;74136;51.684;7.862;2024-01-06T07:02:38;26.77;;;9.98;;
84048;SDS011;74136;51.684;7.862;2024-01-06T07:05:05;27.38;;;8.60;;
84048;SDS011;74136;51.684;7.862;2024-01-06T07:07:33;26.88;;;9.32;;
84048;SDS011;74136;51.684;7.862;2024-01-06T07:10:02;22.65;;;7.93;;
84048;SDS011;74136;51.684;7.862;2024-01-06T07:12:31;24.27;;;7.85;;
84048;SDS011;74136;51.684;7.862;2024-01-06T07:14:57;29.80;;;10.25;;
84048;SDS011;74136;51.684;7.862;2024-01-06T07:17:24;29.95;;;10.23;;
84048;SDS011;74136;51.684;7.862;2024-01-06T07:19:51;28.58;;;8.70;;
84048;SDS011;74136;51.684;7.862;2024-01-06T07:22:17;31.67;;;9.25;;
84048;SDS011;74136;51.684;7.862;2024-01-06T07:24:44;26.27;;;7.95;;
84048;SDS011;74136;51.684;7.862;2024-01-06T07:27:10;24.67;;;8.73;;
84048;SDS011;74136;51.684;7.862;2024-01-06T07:29:37;26.83;;;9.68;;
84048;SDS011;74136;51.684;7.862;2024-01-06T07:32:04;25.30;;;8.05;;
84048;SDS011;74136;51.684;7.862;2024-01-06T07:34:32;26.77;;;9.65;;
84048;SDS011;74136;51.684;7.862;2024-01-06T07:36:59;25.85;;;8.52;;
84048;SDS011;74136;51.684;7.862;2024-01-06T07:39:26;20.52;;;7.45;;
84048;SDS011;74136;51.684;7.862;2024-01-06T07:41:52;17.83;;;5.35;;
84048;SDS011;74136;51.684;7.862;2024-01-06T07:44:18;18.52;;;6.25;;
84048;SDS011;74136;51.684;7.862;2024-01-06T07:46:50;14.05;;;4.65;;
84048;SDS011;74136;51.684;7.862;2024-01-06T07:49:17;13.15;;;4.75;;
84048;SDS011;74136;51.684;7.862;2024-01-06T07:51:43;14.55;;;4.68;;
84048;SDS011;74136;51.684;7.862;2024-01-06T07:54:10;14.70;;;4.60;;
84048;SDS011;74136;51.684;7.862;2024-01-06T07:56:37;13.25;;;4.78;;
84048;SDS011;74136;51.684;7.862;2024-01-06T07:59:04;11.82;;;4.65;;
84048;SDS011;74136;51.684;7.862;2024-01-06T08:01:30;21.52;;;5.82;;
84048;SDS011;74136;51.684;7.862;2024-01-06T08:03:57;16.27;;;4.80;;
84048;SDS011;74136;51.684;7.862;2024-01-06T08:06:24;15.55;;;4.82;;
84048;SDS011;74136;51.684;7.862;2024-01-06T08:08:51;16.92;;;5.20;;
84048;SDS011;74136;51.684;7.862;2024-01-06T08:11:17;19.48;;;6.38;;
84048;SDS011;74136;51.684;7.862;2024-01-06T08:13:43;18.77;;;5.75;;
84048;SDS011;74136;51.684;7.862;2024-01-06T08:16:10;20.05;;;6.93;;
84048;SDS011;74136;51.684;7.862;2024-01-06T08:18:36;20.98;;;6.30;;
84048;SDS011;74136;51.684;7.862;2024-01-06T08:21:02;23.10;;;7.50;;
84048;SDS011;74136;51.684;7.862;2024-01-06T08:23:28;27.85;;;9.32;;
84048;SDS011;74136;51.684;7.862;2024-01-06T08:25:55;27.67;;;8.32;;
84048;SDS011;74136;51.684;7.862;2024-01-06T08:28:21;29.65;;;8.60;;
84048;SDS011;74136;51.684;7.862;2024-01-06T08:30:49;33.80;;;9.40;;
84048;SDS011;74136;51.684;7.862;2024-01-06T08:33:15;31.88;;;10.00;;
84048;SDS011;74136;51.684;7.862;2024-01-06T08:35:43;31.52;;;9.80;;
84048;SDS011;74136;51.684;7.862;2024-01-06T08:38:10;35.65;;;11.68;;
84048;SDS011;74136;51.684;7.862;2024-01-06T08:40:36;33.22;;;10.32;;
84048;SDS011;74136;51.684;7.862;2024-01-06T08:43:03;32.25;;;9.70;;
84048;SDS011;74136;51.684;7.862;2024-01-06T08:45:29;32.38;;;9.90;;
84048;SDS011;74136;51.684;7.862;2024-01-06T08:47:56;25.27;;;7.55;;
84048;SDS011;74136;51.684;7.862;2024-01-06T08:50:22;26.40;;;8.63;;
84048;SDS011;74136;51.684;7.862;2024-01-06T08:52:49;23.05;;;8.40;;
84048;SDS011;74136;51.684;7.862;2024-01-06T08:55:15;22.85;;;7.82;;
84048;SDS011;74136;51.684;7.862;2024-01-06T08:57:42;19.60;;;6.63;;
84048;SDS011;74136;51.684;7.862;2024-01-06T09:00:08;23.88;;;7.78;;
84048;SDS011;74136;51.684;7.862;2024-01-06T09:02:36;18.63;;;6.57;;
84048;SDS011;74136;51.684;7.862;2024-01-06T09:05:02;19.98;;;7.43;;
84048;SDS011;74136;51.684;7.862;2024-01-06T09:07:30;20.17;;;7.82;;
84048;SDS011;74136;51.684;7.862;2024-01-06T09:09:56;17.75;;;6.25;;
84048;SDS011;74136;51.684;7.862;2024-01-06T09:12:22;20.23;;;7.13;;
84048;SDS011;74136;51.684;7.862;2024-01-06T09:14:48;22.20;;;7.53;;
84048;SDS011;74136;51.684;7.862;2024-01-06T09:17:14;23.70;;;7.35;;
84048;SDS011;74136;51.684;7.862;2024-01-06T09:19:41;22.30;;;7.53;;
84048;SDS011;74136;51.684;7.862;2024-01-06T09:22:07;22.85;;;8.75;;
84048;SDS011;74136;51.684;7.862;2024-01-06T09:24:34;26.13;;;8.13;;
84048;SDS011;74136;51.684;7.862;2024-01-06T09:27:00;22.15;;;7.32;;
84048;SDS011;74136;51.684;7.862;2024-01-06T09:29:26;26.70;;;10.35;;
84048;SDS011;74136;51.684;7.862;2024-01-06T09:31:52;22.48;;;8.48;;
84048;SDS011;74136;51.684;7.862;2024-01-06T09:34:18;25.73;;;8.52;;
84048;SDS011;74136;51.684;7.862;2024-01-06T09:36:45;24.40;;;8.10;;
84048;SDS011;74136;51.684;7.862;2024-01-06T09:39:11;26.85;;;8.27;;
84048;SDS011;74136;51.684;7.862;2024-01-06T09:41:37;21.23;;;8.07;;
84048;SDS011;74136;51.684;7.862;2024-01-06T09:44:03;22.60;;;9.27;;
84048;SDS011;74136;51.684;7.862;2024-01-06T09:46:30;19.20;;;7.32;;
84048;SDS011;74136;51.684;7.862;2024-01-06T09:48:57;17.95;;;6.80;;
84048;SDS011;74136;51.684;7.862;2024-01-06T09:51:24;22.58;;;9.93;;
84048;SDS011;74136;51.684;7.862;2024-01-06T09:53:56;26.25;;;10.32;;
84048;SDS011;74136;51.684;7.862;2024-01-06T09:56:25;31.85;;;9.85;;
84048;SDS011;74136;51.684;7.862;2024-01-06T09:58:53;26.50;;;9.43;;
84048;SDS011;74136;51.684;7.862;2024-01-06T10:01:20;43.92;;;12.88;;
84048;SDS011;74136;51.684;7.862;2024-01-06T10:03:47;37.13;;;14.23;;
84048;SDS011;74136;51.684;7.862;2024-01-06T10:06:14;32.30;;;10.27;;
84048;SDS011;74136;51.684;7.862;2024-01-06T10:08:51;35.55;;;11.77;;
84048;SDS011;74136;51.684;7.862;2024-01-06T10:11:19;34.28;;;11.10;;
84048;SDS011;74136;51.684;7.862;2024-01-06T10:13:50;36.85;;;11.27;;
84048;SDS011;74136;51.684;7.862;2024-01-06T10:16:17;37.25;;;11.02;;
84048;SDS011;74136;51.684;7.862;2024-01-06T10:18:44;36.53;;;12.45;;
84048;SDS011;74136;51.684;7.862;2024-01-06T10:21:11;31.50;;;9.60;;
84048;SDS011;74136;51.684;7.862;2024-01-06T10:23:38;29.40;;;9.60;;
84048;SDS011;74136;51.684;7.862;2024-01-06T10:26:04;33.03;;;9.23;;
84048;SDS011;74136;51.684;7.862;2024-01-06T10:28:30;36.10;;;12.25;;
84048;SDS011;74136;51.684;7.862;2024-01-06T10:30:57;32.05;;;10.50;;
84048;SDS011;74136;51.684;7.862;2024-01-06T10:33:24;30.38;;;9.05;;
84048;SDS011;74136;51.684;7.862;2024-01-06T10:35:52;27.00;;;8.88;;
84048;SDS011;74136;51.684;7.862;2024-01-06T10:38:20;32.10;;;11.25;;
84048;SDS011;74136;51.684;7.862;2024-01-06T10:40:56;31.88;;;9.93;;
84048;SDS011;74136;51.684;7.862;2024-01-06T10:43:26;29.77;;;9.88;;
84048;SDS011;74136;51.684;7.862;2024-01-06T10:45:56;30.92;;;12.60;;
84048;SDS011;74136;51.684;7.862;2024-01-06T10:48:24;30.08;;;9.57;;
84048;SDS011;74136;51.684;7.862;2024-01-06T10:50:52;35.60;;;13.45;;
84048;SDS011;74136;51.684;7.862;2024-01-06T10:55:49;30.77;;;10.68;;
84048;SDS011;74136;51.684;7.862;2024-01-06T10:58:17;34.60;;;11.63;;
84048;SDS011;74136;51.684;7.862;2024-01-06T11:00:44;31.40;;;10.85;;
84048;SDS011;74136;51.684;7.862;2024-01-06T11:03:12;29.02;;;9.30;;
84048;SDS011;74136;51.684;7.862;2024-01-06T11:05:40;31.60;;;10.20;;
84048;SDS011;74136;51.684;7.862;2024-01-06T11:08:08;29.10;;;10.57;;
84048;SDS011;74136;51.684;7.862;2024-01-06T11:10:36;37.38;;;10.90;;
84048;SDS011;74136;51.684;7.862;2024-01-06T11:15:46;34.10;;;10.70;;
84048;SDS011;74136;51.684;7.862;2024-01-06T11:18:32;25.00;;;8.70;;
84048;SDS011;74136;51.684;7.862;2024-01-06T11:21:14;23.52;;;8.23;;
84048;SDS011;74136;51.684;7.862;2024-01-06T11:26:32;23.63;;;7.65;;
84048;SDS011;74136;51.684;7.862;2024-01-06T11:29:01;34.00;;;11.48;;
84048;SDS011;74136;51.684;7.862;2024-01-06T11:31:32;32.38;;;11.73;;
84048;SDS011;74136;51.684;7.862;2024-01-06T11:34:11;36.22;;;11.48;;
84048;SDS011;74136;51.684;7.862;2024-01-06T11:36:39;33.55;;;10.30;;
84048;SDS011;74136;51.684;7.862;2024-01-06T11:39:06;43.50;;;14.13;;
84048;SDS011;74136;51.684;7.862;2024-01-06T11:41:46;48.53;;;15.00;;
84048;SDS011;74136;51.684;7.862;2024-01-06T11:44:18;47.53;;;13.63;;
84048;SDS011;74136;51.684;7.862;2024-01-06T11:46:47;40.40;;;12.65;;
84048;SDS011;74136;51.684;7.862;2024-01-06T11:49:17;37.25;;;11.75;;
84048;SDS011;74136;51.684;7.862;2024-01-06T11:51:46;36.97;;;10.75;;
84048;SDS011;74136;51.684;7.862;2024-01-06T11:54:12;37.58;;;11.93;;
84048;SDS011;74136;51.684;7.862;2024-01-06T11:56:39;34.50;;;11.95;;
84048;SDS011;74136;51.684;7.862;2024-01-06T11:59:05;28.38;;;10.88;;
84048;SDS011;74136;51.684;7.862;2024-01-06T12:01:38;32.95;;;9.68;;
84048;SDS011;74136;51.684;7.862;2024-01-06T12:04:05;27.15;;;9.73;;
84048;SDS011;74136;51.684;7.862;2024-01-06T12:06:32;27.42;;;9.70;;
84048;SDS011;74136;51.684;7.862;2024-01-06T12:09:06;31.45;;;13.02;;
84048;SDS011;74136;51.684;7.862;2024-01-06T12:11:32;19.10;;;7.43;;
84048;SDS011;74136;51.684;7.862;2024-01-06T12:13:59;24.50;;;8.38;;
84048;SDS011;74136;51.684;7.862;2024-01-06T12:16:25;20.83;;;7.18;;
84048;SDS011;74136;51.684;7.862;2024-01-06T12:18:55;22.80;;;7.97;;
84048;SDS011;74136;51.684;7.862;2024-01-06T12:21:23;19.60;;;6.60;;
84048;SDS011;74136;51.684;7.862;2024-01-06T12:23:49;21.55;;;9.10;;
84048;SDS011;74136;51.684;7.862;2024-01-06T12:26:19;21.48;;;9.20;;
84048;SDS011;74136;51.684;7.862;2024-01-06T12:28:46;18.33;;;6.93;;
84048;SDS011;74136;51.684;7.862;2024-01-06T12:31:12;20.23;;;9.02;;
84048;SDS011;74136;51.684;7.862;2024-01-06T12:33:39;20.08;;;7.38;;
84048;SDS011;74136;51.684;7.862;2024-01-06T12:36:09;23.65;;;9.10;;
84048;SDS011;74136;51.684;7.862;2024-01-06T12:38:37;19.42;;;7.07;;
84048;SDS011;74136;51.684;7.862;2024-01-06T12:41:04;21.02;;;7.53;;
84048;SDS011;74136;51.684;7.862;2024-01-06T12:43:30;23.40;;;9.55;;
84048;SDS011;74136;51.684;7.862;2024-01-06T12:45:56;25.23;;;8.60;;
84048;SDS011;74136;51.684;7.862;2024-01-06T12:48:24;26.58;;;8.82;;
84048;SDS011;74136;51.684;7.862;2024-01-06T12:50:50;26.55;;;10.48;;
84048;SDS011;74136;51.684;7.862;2024-01-06T12:53:16;24.13;;;9.07;;
84048;SDS011;74136;51.684;7.862;2024-01-06T12:55:43;25.38;;;8.57;;
84048;SDS011;74136;51.684;7.862;2024-01-06T12:58:10;29.00;;;11.82;;
84048;SDS011;74136;51.684;7.862;2024-01-06T13:00:37;23.77;;;9.45;;
84048;SDS011;74136;51.684;7.862;2024-01-06T13:03:05;28.33;;;10.75;;
84048;SDS011;74136;51.684;7.862;2024-01-06T13:05:32;26.27;;;8.95;;
84048;SDS011;74136;51.684;7.862;2024-01-06T13:07:58;24.10;;;9.02;;
84048;SDS011;74136;51.684;7.862;2024-01-06T13:10:24;24.60;;;9.02;;
84048;SDS011;74136;51.684;7.862;2024-01-06T13:12:51;20.55;;;8.38;;
84048;SDS011;74136;51.684;7.862;2024-01-06T13:15:17;21.40;;;7.97;;
84048;SDS011;74136;51.684;7.862;2024-01-06T13:17:43;22.13;;;7.90;;
84048;SDS011;74136;51.684;7.862;2024-01-06T13:22:52;24.92;;;9.13;;
84048;SDS011;74136;51.684;7.862;2024-01-06T13:25:19;19.40;;;6.68;;
84048;SDS011;74136;51.684;7.862;2024-01-06T13:27:46;15.73;;;5.95;;
84048;SDS011;74136;51.684;7.862;2024-01-06T13:30:12;17.15;;;6.50;;
84048;SDS011;74136;51.684;7.862;2024-01-06T13:32:47;17.17;;;6.32;;
84048;SDS011;74136;51.684;7.862;2024-01-06T13:35:15;15.02;;;5.22;;
84048;SDS011;74136;51.684;7.862;2024-01-06T13:37:41;16.30;;;6.18;;
84048;SDS011;74136;51.684;7.862;2024-01-06T13:40:09;18.25;;;6.68;;
84048;SDS011;74136;51.684;7.862;2024-01-06T13:42:36;17.17;;;5.78;;
84048;SDS011;74136;51.684;7.862;2024-01-06T13:45:04;14.48;;;4.72;;
84048;SDS011;74136;51.684;7.862;2024-01-06T13:47:38;15.55;;;5.93;;
84048;SDS011;74136;51.684;7.862;2024-01-06T13:50:06;17.30;;;6.45;;
84048;SDS011;74136;51.684;7.862;2024-01-06T13:55:00;17.33;;;5.25;;
84048;SDS011;74136;51.684;7.862;2024-01-06T14:02:30;14.60;;;5.53;;
84048;SDS011;74136;51.684;7.862;2024-01-06T14:04:56;24.35;;;6.85;;
84048;SDS011;74136;51.684;7.862;2024-01-06T14:07:22;19.27;;;5.75;;
84048;SDS011;74136;51.684;7.862;2024-01-06T14:09:49;20.13;;;5.95;;
84048;SDS011;74136;51.684;7.862;2024-01-06T14:12:15;18.15;;;5.72;;
84048;SDS011;74136;51.684;7.862;2024-01-06T14:14:41;18.95;;;6.68;;
84048;SDS011;74136;51.684;7.862;2024-01-06T14:17:08;20.60;;;6.65;;
84048;SDS011;74136;51.684;7.862;2024-01-06T14:19:34;20.52;;;6.45;;
84048;SDS011;74136;51.684;7.862;2024-01-06T14:22:00;20.98;;;6.53;;
84048;SDS011;74136;51.684;7.862;2024-01-06T14:24:26;17.27;;;6.32;;
84048;SDS011;74136;51.684;7.862;2024-01-06T14:26:53;19.27;;;6.30;;
84048;SDS011;74136;51.684;7.862;2024-01-06T14:29:21;21.30;;;6.85;;
84048;SDS011;74136;51.684;7.862;2024-01-06T14:31:47;20.63;;;7.00;;
84048;SDS011;74136;51.684;7.862;2024-01-06T14:34:14;28.63;;;9.48;;
84048;SDS011;74136;51.684;7.862;2024-01-06T14:36:41;25.33;;;7.45;;
84048;SDS011;74136;51.684;7.862;2024-01-06T14:39:14;21.08;;;6.40;;
84048;SDS011;74136;51.684;7.862;2024-01-06T14:41:40;19.95;;;7.03;;
84048;SDS011;74136;51.684;7.862;2024-01-06T14:46:36;21.63;;;8.02;;
84048;SDS011;74136;51.684;7.862;2024-01-06T14:49:03;22.55;;;8.10;;
84048;SDS011;74136;51.684;7.862;2024-01-06T14:51:29;24.23;;;7.68;;
84048;SDS011;74136;51.684;7.862;2024-01-06T14:53:56;20.67;;;6.28;;